Time;durP1;ratioP1;P1;durP2;ratioP2;P2;SDS_P1;SDS_P2;PMS_P1;PMS_P2;Temp;Humidity;BMP_temperature;BMP_pressure;BME280_temperature;BME280_humidity;BME280_pressure;Samples;Min_cycle;Max_cycle;Signal;HPM_P1;HPM_P2
2021/10/22 00:00:44;;;;;;;27.80;19.17;;;;;;;;;;5007974;28;20445;-69
2021/10/22 00:03:11;;;;;;;27.33;18.77;;;;;;;;;;5006429;28;20612;-72
2021/10/22 00:05:41;;;;;;;26.17;19.33;;;;;;;;;;4994804;28;20509;-70
2021/10/22 00:08:08;;;;;;;32.73;20.63;;;;;;;;;;5010041;28;20475;-72
2021/10/22 00:10:35;;;;;;;28.47;20.20;;;;;;;;;;5005276;28;20796;-72
2021/10/22 00:13:02;;;;;;;28.43;18.90;;;;;;;;;;5012556;28;20445;-71
2021/10/22 00:15:29;;;;;;;26.03;18.83;;;;;;;;;;5019300;28;20963;-71
2021/10/22 00:17:56;;;;;;;25.43;18.97;;;;;;;;;;5022227;28;20452;-71
2021/10/22 00:20:24;;;;;;;26.13;18.00;;;;;;;;;;5010430;28;20523;-73
2021/10/22 00:22:50;;;;;;;26.83;17.83;;;;;;;;;;5021218;28;20447;-74
2021/10/22 00:25:19;;;;;;;24.17;17.97;;;;;;;;;;5018724;28;20475;-73
2021/10/22 00:27:46;;;;;;;30.53;19.60;;;;;;;;;;5021147;28;20502;-73
2021/10/22 00:30:13;;;;;;;26.83;19.23;;;;;;;;;;5013710;28;20461;-73
2021/10/22 00:32:41;;;;;;;24.27;17.50;;;;;;;;;;5014670;28;20441;-70
2021/10/22 00:35:08;;;;;;;27.27;18.30;;;;;;;;;;5015758;28;20986;-71
2021/10/22 00:37:35;;;;;;;25.83;17.53;;;;;;;;;;5020009;28;20936;-72
2021/10/22 00:40:02;;;;;;;24.67;17.70;;;;;;;;;;5016883;28;21017;-73
2021/10/22 00:42:29;;;;;;;25.70;16.83;;;;;;;;;;5019024;28;20451;-74
2021/10/22 00:44:56;;;;;;;27.27;18.90;;;;;;;;;;5016456;28;20483;-72
2021/10/22 00:47:23;;;;;;;26.47;17.70;;;;;;;;;;5010867;28;20535;-73
2021/10/22 00:49:50;;;;;;;23.97;18.10;;;;;;;;;;4998014;28;20433;-74
2021/10/22 00:52:21;;;;;;;21.80;17.13;;;;;;;;;;5008819;28;20444;-70
2021/10/22 00:54:48;;;;;;;27.30;17.50;;;;;;;;;;5012725;28;20439;-71
2021/10/22 00:57:14;;;;;;;25.93;17.53;;;;;;;;;;5015527;28;21413;-74
2021/10/22 00:59:42;;;;;;;25.73;17.80;;;;;;;;;;5013858;28;20849;-74
2021/10/22 01:02:08;;;;;;;26.17;17.80;;;;;;;;;;5014997;28;20889;-73
2021/10/22 01:04:36;;;;;;;28.67;17.73;;;;;;;;;;5002727;28;21020;-71
2021/10/22 01:07:03;;;;;;;24.20;17.57;;;;;;;;;;5016332;28;20476;-70
2021/10/22 01:09:30;;;;;;;25.73;17.20;;;;;;;;;;5022730;28;20444;-74
2021/10/22 01:11:57;;;;;;;24.40;17.90;;;;;;;;;;5025752;28;20466;-71
2021/10/22 01:14:23;;;;;;;25.93;16.30;;;;;;;;;;5016190;28;20448;-69
2021/10/22 01:16:50;;;;;;;25.30;17.73;;;;;;;;;;5013076;28;20444;-71
2021/10/22 01:19:17;;;;;;;24.17;16.93;;;;;;;;;;5021904;28;20443;-74
2021/10/22 01:21:46;;;;;;;22.50;17.00;;;;;;;;;;5032163;28;20440;-74
2021/10/22 01:24:14;;;;;;;26.17;17.47;;;;;;;;;;5032501;28;20454;-71
2021/10/22 01:26:41;;;;;;;23.90;17.60;;;;;;;;;;5032075;28;20471;-71
2021/10/22 01:29:08;;;;;;;22.27;15.73;;;;;;;;;;5023561;28;21355;-74
2021/10/22 01:31:35;;;;;;;22.73;16.70;;;;;;;;;;5014889;28;20439;-71
2021/10/22 01:34:02;;;;;;;24.03;17.27;;;;;;;;;;5017383;28;20441;-73
2021/10/22 01:36:29;;;;;;;25.27;16.77;;;;;;;;;;5011896;28;20454;-74
2021/10/22 01:38:57;;;;;;;24.73;17.20;;;;;;;;;;5010985;28;21377;-71
2021/10/22 01:41:24;;;;;;;21.93;15.20;;;;;;;;;;5011546;28;20436;-69
2021/10/22 01:43:52;;;;;;;25.27;16.33;;;;;;;;;;5023701;28;20467;-73
2021/10/22 01:46:20;;;;;;;23.30;15.87;;;;;;;;;;5030217;28;21201;-73
2021/10/22 01:48:48;;;;;;;25.97;16.70;;;;;;;;;;5018281;28;20546;-70
2021/10/22 01:51:15;;;;;;;22.33;15.77;;;;;;;;;;5020026;28;20441;-70
2021/10/22 01:53:42;;;;;;;25.13;17.03;;;;;;;;;;5031335;28;20439;-71
2021/10/22 01:56:11;;;;;;;29.33;18.00;;;;;;;;;;5033553;28;20440;-71
2021/10/22 01:58:44;;;;;;;26.50;17.10;;;;;;;;;;5014197;28;20445;-72
2021/10/22 02:01:11;;;;;;;29.00;18.60;;;;;;;;;;5014306;28;20436;-72
2021/10/22 02:03:37;;;;;;;26.77;15.70;;;;;;;;;;5016169;28;20448;-71
2021/10/22 02:06:06;;;;;;;24.83;16.17;;;;;;;;;;5016216;28;20562;-72
2021/10/22 02:08:32;;;;;;;28.03;17.77;;;;;;;;;;5015274;28;20472;-71
2021/10/22 02:11:01;;;;;;;26.10;16.80;;;;;;;;;;5024793;28;21110;-72
2021/10/22 02:13:29;;;;;;;28.70;17.00;;;;;;;;;;5012108;28;20441;-70
2021/10/22 02:15:56;;;;;;;22.80;16.07;;;;;;;;;;5012916;28;20443;-70
2021/10/22 02:18:23;;;;;;;26.07;16.47;;;;;;;;;;5012032;28;20854;-72
2021/10/22 02:20:51;;;;;;;24.13;16.43;;;;;;;;;;5017894;28;20516;-73
2021/10/22 02:23:18;;;;;;;27.33;16.63;;;;;;;;;;5027094;28;20447;-68
2021/10/22 02:25:45;;;;;;;26.90;16.33;;;;;;;;;;5021400;28;20487;-72
2021/10/22 02:28:12;;;;;;;25.33;16.20;;;;;;;;;;5032895;28;20443;-72
2021/10/22 02:30:42;;;;;;;26.03;16.90;;;;;;;;;;5016301;28;20440;-71
2021/10/22 02:33:09;;;;;;;25.20;15.73;;;;;;;;;;5019477;28;20440;-69
2021/10/22 02:35:37;;;;;;;25.67;16.70;;;;;;;;;;5013951;28;21155;-72
2021/10/22 02:38:04;;;;;;;23.37;16.97;;;;;;;;;;5018059;28;20447;-72
2021/10/22 02:40:31;;;;;;;31.00;21.37;;;;;;;;;;5017606;28;20441;-71
2021/10/22 02:42:58;;;;;;;31.77;20.60;;;;;;;;;;5011327;28;20432;-68
2021/10/22 02:45:27;;;;;;;30.90;21.10;;;;;;;;;;5026688;28;20479;-72
2021/10/22 02:47:56;;;;;;;27.50;17.40;;;;;;;;;;5010771;28;20437;-72
2021/10/22 02:50:23;;;;;;;30.17;18.53;;;;;;;;;;5014370;28;20441;-72
2021/10/22 02:52:49;;;;;;;38.20;17.67;;;;;;;;;;5012885;28;20451;-70
2021/10/22 02:55:16;;;;;;;26.73;17.57;;;;;;;;;;5007533;28;20438;-72
2021/10/22 02:57:43;;;;;;;26.00;16.03;;;;;;;;;;5020874;28;20536;-70
2021/10/22 03:00:11;;;;;;;23.70;16.60;;;;;;;;;;5006180;28;20509;-70
2021/10/22 03:02:40;;;;;;;23.37;15.53;;;;;;;;;;5009041;28;20431;-72
2021/10/22 03:05:11;;;;;;;24.07;16.30;;;;;;;;;;5020212;28;20490;-70
2021/10/22 03:07:40;;;;;;;27.00;16.40;;;;;;;;;;5013562;28;20472;-71
2021/10/22 03:10:09;;;;;;;26.43;15.63;;;;;;;;;;4998008;28;20448;-71
2021/10/22 03:12:36;;;;;;;27.57;16.23;;;;;;;;;;5009978;28;20987;-71
2021/10/22 03:15:04;;;;;;;29.87;15.83;;;;;;;;;;5023096;28;20455;-71
2021/10/22 03:17:31;;;;;;;23.27;16.10;;;;;;;;;;5026453;28;20467;-73
2021/10/22 03:19:58;;;;;;;23.87;15.03;;;;;;;;;;5028233;28;20435;-71
2021/10/22 03:22:24;;;;;;;25.90;14.93;;;;;;;;;;5013372;28;20468;-73
2021/10/22 03:24:51;;;;;;;25.90;15.77;;;;;;;;;;5025288;28;20451;-71
2021/10/22 03:27:20;;;;;;;26.53;14.93;;;;;;;;;;5022608;28;20539;-70
2021/10/22 03:29:47;;;;;;;24.00;14.50;;;;;;;;;;5008379;28;20486;-71
2021/10/22 03:32:14;;;;;;;22.83;15.00;;;;;;;;;;5000597;28;21346;-71
2021/10/22 03:34:41;;;;;;;23.87;14.10;;;;;;;;;;5011501;28;20444;-70
2021/10/22 03:37:09;;;;;;;20.37;14.63;;;;;;;;;;5016555;28;20492;-73
2021/10/22 03:39:37;;;;;;;20.33;14.20;;;;;;;;;;5020779;28;20471;-72
2021/10/22 03:42:04;;;;;;;21.73;14.40;;;;;;;;;;5015647;28;20445;-74
2021/10/22 03:44:31;;;;;;;21.03;14.90;;;;;;;;;;5030181;28;20997;-73
2021/10/22 03:46:58;;;;;;;17.40;13.07;;;;;;;;;;5029689;28;20479;-72
2021/10/22 03:49:25;;;;;;;27.00;15.00;;;;;;;;;;5030027;28;20450;-73
2021/10/22 03:51:53;;;;;;;23.13;14.73;;;;;;;;;;5026816;28;20440;-72
2021/10/22 03:54:22;;;;;;;29.20;15.57;;;;;;;;;;5005347;28;20444;-70
2021/10/22 03:56:50;;;;;;;22.23;14.23;;;;;;;;;;5011631;28;21368;-70
2021/10/22 03:59:17;;;;;;;23.37;14.30;;;;;;;;;;5024116;28;20475;-72
2021/10/22 04:01:44;;;;;;;22.23;14.43;;;;;;;;;;5008624;28;20441;-73
2021/10/22 04:04:12;;;;;;;21.77;14.00;;;;;;;;;;5026860;28;21206;-71
2021/10/22 04:06:39;;;;;;;25.37;14.43;;;;;;;;;;5016780;28;20507;-72
2021/10/22 04:09:07;;;;;;;26.03;16.67;;;;;;;;;;5024086;28;20444;-73
2021/10/22 04:11:35;;;;;;;25.53;15.63;;;;;;;;;;5029725;28;20455;-71
2021/10/22 04:14:04;;;;;;;29.50;14.40;;;;;;;;;;5027517;28;20437;-73
2021/10/22 04:16:31;;;;;;;29.43;17.40;;;;;;;;;;5030662;28;20440;-70
2021/10/22 04:18:58;;;;;;;24.57;15.77;;;;;;;;;;5030651;28;20440;-72
2021/10/22 04:21:25;;;;;;;20.97;14.47;;;;;;;;;;5029659;28;20454;-70
2021/10/22 04:23:52;;;;;;;24.83;14.83;;;;;;;;;;5029359;28;20436;-70
2021/10/22 04:26:18;;;;;;;25.40;14.37;;;;;;;;;;5017533;28;21216;-69
2021/10/22 04:28:45;;;;;;;25.57;14.17;;;;;;;;;;5013534;28;20449;-71
2021/10/22 04:31:12;;;;;;;22.13;14.37;;;;;;;;;;5028958;28;20850;-75
2021/10/22 04:33:39;;;;;;;23.47;15.70;;;;;;;;;;5029315;28;20443;-71
2021/10/22 04:36:08;;;;;;;26.10;15.20;;;;;;;;;;5027829;28;20436;-72
2021/10/22 04:41:23;;;;;;;37.00;16.27;;;;;;;;;;5024541;28;20497;-70
2021/10/22 04:43:51;;;;;;;28.53;16.40;;;;;;;;;;5019583;28;20444;-73
2021/10/22 04:46:18;;;;;;;32.57;16.20;;;;;;;;;;5026949;28;20471;-72
2021/10/22 04:48:46;;;;;;;35.20;20.27;;;;;;;;;;5010892;28;20447;-71
2021/10/22 04:51:14;;;;;;;79.43;52.43;;;;;;;;;;5009969;28;20448;-68
2021/10/22 04:53:41;;;;;;;133.00;93.67;;;;;;;;;;5029745;28;20442;-70
2021/10/22 04:56:07;;;;;;;33.20;19.27;;;;;;;;;;5035557;28;20440;-72
2021/10/22 04:58:34;;;;;;;38.07;16.93;;;;;;;;;;5020372;28;20492;-75
2021/10/22 05:01:01;;;;;;;37.70;16.37;;;;;;;;;;5034859;28;20450;-73
2021/10/22 05:03:29;;;;;;;33.53;16.40;;;;;;;;;;5036017;28;20491;-71
2021/10/22 05:05:56;;;;;;;35.03;16.93;;;;;;;;;;5033767;28;20578;-74
2021/10/22 05:08:23;;;;;;;42.10;19.03;;;;;;;;;;5020385;28;20468;-73
2021/10/22 05:10:49;;;;;;;45.80;22.87;;;;;;;;;;5027741;28;20433;-73
2021/10/22 05:13:17;;;;;;;46.07;24.80;;;;;;;;;;5014536;28;20962;-72
2021/10/22 05:15:44;;;;;;;51.60;24.23;;;;;;;;;;5014349;28;20445;-73
2021/10/22 05:18:10;;;;;;;68.53;37.17;;;;;;;;;;5013306;28;20463;-72
2021/10/22 05:20:37;;;;;;;107.70;54.47;;;;;;;;;;5020856;28;20447;-68
2021/10/22 05:23:08;;;;;;;98.50;51.97;;;;;;;;;;5018872;28;20448;-72
2021/10/22 05:25:35;;;;;;;94.43;55.67;;;;;;;;;;5019008;28;20443;-73
2021/10/22 05:28:02;;;;;;;75.83;38.47;;;;;;;;;;5032678;28;20444;-72
2021/10/22 05:30:29;;;;;;;61.43;32.60;;;;;;;;;;5019582;28;20433;-71
2021/10/22 05:32:55;;;;;;;64.43;34.80;;;;;;;;;;5027138;28;20437;-72
2021/10/22 05:35:22;;;;;;;57.97;33.70;;;;;;;;;;5027477;28;20447;-72
2021/10/22 05:37:49;;;;;;;68.30;37.43;;;;;;;;;;5025886;28;20444;-72
2021/10/22 05:40:16;;;;;;;55.23;34.17;;;;;;;;;;5027859;28;20501;-73
2021/10/22 05:42:42;;;;;;;55.33;36.13;;;;;;;;;;5014981;28;20448;-72
2021/10/22 05:45:09;;;;;;;65.17;33.97;;;;;;;;;;5027983;28;20444;-73
2021/10/22 05:47:37;;;;;;;60.97;34.23;;;;;;;;;;5017789;28;20487;-73
2021/10/22 05:50:05;;;;;;;60.17;37.93;;;;;;;;;;5017657;28;20855;-74
2021/10/22 05:52:32;;;;;;;58.70;34.77;;;;;;;;;;5036522;28;20443;-76
2021/10/22 05:54:58;;;;;;;55.83;31.47;;;;;;;;;;5035047;28;20538;-70
2021/10/22 05:57:26;;;;;;;54.50;32.97;;;;;;;;;;5027147;28;20950;-73
2021/10/22 05:59:53;;;;;;;119.23;77.47;;;;;;;;;;5027467;28;20820;-72
2021/10/22 06:02:21;;;;;;;57.87;36.17;;;;;;;;;;5014039;28;20456;-72
2021/10/22 06:04:48;;;;;;;47.43;30.17;;;;;;;;;;5025729;28;20441;-76
2021/10/22 06:07:15;;;;;;;40.57;25.53;;;;;;;;;;5030237;28;20489;-72
2021/10/22 06:09:42;;;;;;;32.10;18.07;;;;;;;;;;5017386;28;21375;-72
2021/10/22 06:12:09;;;;;;;33.07;20.83;;;;;;;;;;5028698;28;20543;-73
2021/10/22 06:14:36;;;;;;;33.60;20.67;;;;;;;;;;5015456;28;20437;-71
2021/10/22 06:17:03;;;;;;;38.10;21.80;;;;;;;;;;5034098;28;20471;-71
2021/10/22 06:19:34;;;;;;;38.50;19.43;;;;;;;;;;5024678;28;20441;-72
2021/10/22 06:22:17;;;;;;;98.43;70.03;;;;;;;;;;5035096;28;20486;-72
2021/10/22 06:24:44;;;;;;;53.83;38.70;;;;;;;;;;5024037;28;20474;-72
2021/10/22 06:27:11;;;;;;;36.53;20.00;;;;;;;;;;5022448;28;20839;-73
2021/10/22 06:29:38;;;;;;;37.07;19.87;;;;;;;;;;5036123;28;20435;-71
2021/10/22 06:32:05;;;;;;;38.23;21.30;;;;;;;;;;5031659;28;20448;-71
2021/10/22 06:34:38;;;;;;;29.37;19.53;;;;;;;;;;5026878;28;20484;-72
2021/10/22 06:37:05;;;;;;;40.87;21.57;;;;;;;;;;5020701;28;20445;-74
2021/10/22 06:39:32;;;;;;;43.07;20.83;;;;;;;;;;5035730;28;20497;-71
2021/10/22 06:42:02;;;;;;;39.33;21.47;;;;;;;;;;5033112;28;20795;-71
2021/10/22 06:44:31;;;;;;;45.13;24.70;;;;;;;;;;5015406;28;20523;-73
2021/10/22 06:46:58;;;;;;;46.80;25.17;;;;;;;;;;5024059;28;21024;-73
2021/10/22 06:49:25;;;;;;;46.83;26.23;;;;;;;;;;5013768;28;20448;-70
2021/10/22 06:51:53;;;;;;;45.97;26.87;;;;;;;;;;5015657;28;20440;-71
2021/10/22 06:54:20;;;;;;;50.73;29.20;;;;;;;;;;5023708;28;20455;-71
2021/10/22 06:56:47;;;;;;;56.83;31.10;;;;;;;;;;5013231;28;20455;-72
2021/10/22 06:59:13;;;;;;;49.23;29.60;;;;;;;;;;5023148;28;20894;-72
2021/10/22 07:01:40;;;;;;;57.03;30.93;;;;;;;;;;5021302;28;20441;-72
2021/10/22 07:04:09;;;;;;;54.87;29.83;;;;;;;;;;5031410;28;20477;-70
2021/10/22 07:09:51;;;;;;;55.60;32.00;;;;;;;;;;5019414;28;20845;-73
2021/10/22 07:12:23;;;;;;;55.00;30.47;;;;;;;;;;5012984;28;20489;-72
2021/10/22 07:14:59;;;;;;;56.73;30.10;;;;;;;;;;5021312;28;20436;-71
2021/10/22 07:17:26;;;;;;;44.73;28.73;;;;;;;;;;5020221;28;20481;-73
2021/10/22 07:19:56;;;;;;;52.77;29.30;;;;;;;;;;5031332;28;20448;-70
2021/10/22 07:22:30;;;;;;;46.10;29.73;;;;;;;;;;5031135;28;20448;-69
2021/10/22 07:25:08;;;;;;;63.57;31.23;;;;;;;;;;5031674;28;20446;-72
2021/10/22 07:27:36;;;;;;;54.57;28.50;;;;;;;;;;5024853;28;20476;-75
2021/10/22 07:30:03;;;;;;;49.40;27.97;;;;;;;;;;5026653;28;20440;-75
2021/10/22 07:32:32;;;;;;;47.90;28.27;;;;;;;;;;5024388;28;20502;-75
2021/10/22 07:34:58;;;;;;;43.20;27.47;;;;;;;;;;5026078;28;20502;-73
2021/10/22 07:37:25;;;;;;;43.03;27.03;;;;;;;;;;5031523;28;20530;-75
2021/10/22 07:39:52;;;;;;;53.23;28.00;;;;;;;;;;5021710;28;20837;-76
2021/10/22 07:42:18;;;;;;;51.73;28.50;;;;;;;;;;5030324;28;20440;-75
2021/10/22 07:44:54;;;;;;;42.27;26.33;;;;;;;;;;5022325;28;20880;-74
2021/10/22 07:47:41;;;;;;;46.40;25.83;;;;;;;;;;5021537;28;20480;-75
2021/10/22 07:50:08;;;;;;;43.70;27.63;;;;;;;;;;5014874;28;20436;-75
2021/10/22 07:52:35;;;;;;;43.53;26.90;;;;;;;;;;5032238;28;20440;-71
2021/10/22 07:55:02;;;;;;;39.60;27.67;;;;;;;;;;5032563;28;20443;-71
2021/10/22 07:57:30;;;;;;;47.43;28.43;;;;;;;;;;5030308;28;20878;-71
2021/10/22 08:00:00;;;;;;;49.00;33.17;;;;;;;;;;5030452;28;20451;-73
2021/10/22 08:02:27;;;;;;;44.73;30.30;;;;;;;;;;5030982;28;20440;-73
2021/10/22 08:04:54;;;;;;;58.47;40.83;;;;;;;;;;5031114;28;20449;-79
2021/10/22 08:07:27;;;;;;;125.20;84.87;;;;;;;;;;5016473;28;20530;-77
2021/10/22 08:09:54;;;;;;;43.53;28.33;;;;;;;;;;5030700;28;20443;-75
2021/10/22 08:12:25;;;;;;;38.17;25.10;;;;;;;;;;5015801;28;20436;-76
2021/10/22 08:14:53;;;;;;;36.83;25.57;;;;;;;;;;5021335;28;20447;-75
2021/10/22 08:17:24;;;;;;;52.97;29.00;;;;;;;;;;5030978;28;20535;-76
2021/10/22 08:20:09;;;;;;;44.60;29.00;;;;;;;;;;5016750;28;20930;-73
2021/10/22 08:25:47;;;;;;;48.07;28.90;;;;;;;;;;5030832;28;20464;-76
2021/10/22 08:28:15;;;;;;;40.77;28.27;;;;;;;;;;5028294;28;20553;-74
2021/10/22 08:30:42;;;;;;;45.30;30.40;;;;;;;;;;5016192;28;20432;-76
2021/10/22 08:33:11;;;;;;;52.03;31.93;;;;;;;;;;5017084;28;20797;-77
2021/10/22 08:35:38;;;;;;;48.07;31.77;;;;;;;;;;5014686;28;20489;-75
2021/10/22 08:38:08;;;;;;;51.07;34.47;;;;;;;;;;5018371;28;20456;-76
2021/10/22 08:40:36;;;;;;;47.33;29.13;;;;;;;;;;5009884;28;20476;-75
2021/10/22 08:43:03;;;;;;;52.90;37.87;;;;;;;;;;5009962;28;20551;-75
2021/10/22 08:45:31;;;;;;;48.27;29.23;;;;;;;;;;5025376;28;20479;-77
2021/10/22 08:47:59;;;;;;;40.43;27.60;;;;;;;;;;5016101;28;20901;-76
2021/10/22 08:50:25;;;;;;;43.97;25.17;;;;;;;;;;5029050;28;20912;-79
2021/10/22 08:52:53;;;;;;;40.03;25.47;;;;;;;;;;5029372;28;20802;-78
2021/10/22 08:55:19;;;;;;;34.80;24.57;;;;;;;;;;5011870;28;20506;-75
2021/10/22 08:57:47;;;;;;;32.33;24.43;;;;;;;;;;5019288;28;20443;-76
2021/10/22 09:00:16;;;;;;;34.23;22.03;;;;;;;;;;5027881;28;20825;-75
2021/10/22 09:02:48;;;;;;;32.57;21.70;;;;;;;;;;5010176;28;20440;-76
2021/10/22 09:05:16;;;;;;;31.57;20.63;;;;;;;;;;5011674;28;20547;-79
2021/10/22 09:07:50;;;;;;;37.50;22.30;;;;;;;;;;5021356;28;20853;-75
2021/10/22 09:10:19;;;;;;;29.57;20.37;;;;;;;;;;5023180;28;20491;-76
2021/10/22 09:12:47;;;;;;;33.73;21.30;;;;;;;;;;5017072;28;20440;-75
2021/10/22 09:15:16;;;;;;;31.90;20.80;;;;;;;;;;5024489;28;20524;-74
2021/10/22 09:17:44;;;;;;;33.47;21.70;;;;;;;;;;5020129;28;20439;-73
2021/10/22 09:20:12;;;;;;;33.60;22.23;;;;;;;;;;5025476;28;20441;-72
2021/10/22 09:22:40;;;;;;;33.30;21.27;;;;;;;;;;5018998;28;20440;-79
2021/10/22 09:25:10;;;;;;;30.80;21.83;;;;;;;;;;5012861;28;20524;-73
2021/10/22 09:27:37;;;;;;;33.03;20.67;;;;;;;;;;5018214;28;20467;-72
2021/10/22 09:30:06;;;;;;;29.30;20.57;;;;;;;;;;5029430;28;20444;-76
2021/10/22 09:32:33;;;;;;;33.80;21.10;;;;;;;;;;5025456;28;20507;-70
2021/10/22 09:35:07;;;;;;;34.30;23.37;;;;;;;;;;5024791;28;20440;-71
2021/10/22 09:37:35;;;;;;;39.53;30.43;;;;;;;;;;5030339;28;20443;-72
2021/10/22 09:40:02;;;;;;;30.77;21.47;;;;;;;;;;5032316;28;20436;-78
2021/10/22 09:42:29;;;;;;;28.23;21.10;;;;;;;;;;5017336;28;20443;-70
2021/10/22 09:44:56;;;;;;;36.33;21.83;;;;;;;;;;5032258;28;20965;-72
2021/10/22 09:47:23;;;;;;;32.07;21.30;;;;;;;;;;5022739;28;20476;-73
2021/10/22 09:49:53;;;;;;;37.60;21.23;;;;;;;;;;5010898;28;20437;-73
2021/10/22 09:52:24;;;;;;;39.70;21.50;;;;;;;;;;5029575;28;20440;-72
2021/10/22 09:55:08;;;;;;;28.17;21.37;;;;;;;;;;5016947;28;20450;-72
2021/10/22 09:57:35;;;;;;;39.63;22.33;;;;;;;;;;5018043;28;20542;-74
2021/10/22 10:00:06;;;;;;;35.37;22.80;;;;;;;;;;5016166;28;20448;-73
2021/10/22 10:02:37;;;;;;;33.00;21.77;;;;;;;;;;5019295;28;20440;-72
2021/10/22 10:05:08;;;;;;;40.77;23.43;;;;;;;;;;5031749;28;20444;-75
2021/10/22 10:07:37;;;;;;;36.30;22.57;;;;;;;;;;5011840;28;21029;-74
2021/10/22 10:10:04;;;;;;;46.93;23.13;;;;;;;;;;5012227;28;20535;-72
2021/10/22 10:12:31;;;;;;;39.83;24.20;;;;;;;;;;5025102;28;20448;-74
2021/10/22 10:14:58;;;;;;;34.07;22.23;;;;;;;;;;5014660;28;21048;-73
2021/10/22 10:17:26;;;;;;;34.17;22.00;;;;;;;;;;5032075;28;20444;-71
2021/10/22 10:19:53;;;;;;;31.50;20.80;;;;;;;;;;5018344;28;20582;-74
2021/10/22 10:22:26;;;;;;;43.03;21.80;;;;;;;;;;5031355;28;20284;-74
2021/10/22 10:24:57;;;;;;;40.53;21.37;;;;;;;;;;5031146;28;20197;-72
2021/10/22 10:27:26;;;;;;;29.60;21.13;;;;;;;;;;5023855;28;20237;-73
2021/10/22 10:29:58;;;;;;;30.50;21.20;;;;;;;;;;5024918;28;20198;-74
2021/10/22 10:32:27;;;;;;;36.03;23.13;;;;;;;;;;5017319;28;20737;-72
2021/10/22 10:35:09;;;;;;;31.70;20.93;;;;;;;;;;5031721;28;20221;-73
2021/10/22 10:37:41;;;;;;;37.43;22.30;;;;;;;;;;5024123;28;20276;-71
2021/10/22 10:40:12;;;;;;;99.43;82.57;;;;;;;;;;5011429;28;20201;-70
2021/10/22 10:42:42;;;;;;;212.80;167.20;;;;;;;;;;5017239;28;20211;-70
2021/10/22 10:45:16;;;;;;;34.17;22.27;;;;;;;;;;5018148;28;20217;-74
2021/10/22 10:47:47;;;;;;;37.53;22.17;;;;;;;;;;5011677;28;20316;-73
2021/10/22 10:50:16;;;;;;;36.80;21.43;;;;;;;;;;5015311;28;20205;-71
2021/10/22 10:52:44;;;;;;;32.30;20.23;;;;;;;;;;5020264;28;20209;-73
2021/10/22 10:55:28;;;;;;;132.20;102.53;;;;;;;;;;5027272;28;20300;-75
2021/10/22 10:58:16;;;;;;;63.00;46.80;;;;;;;;;;5030740;28;20193;-69
2021/10/22 11:00:50;;;;;;;29.83;21.20;;;;;;;;;;5011842;28;20201;-67
2021/10/22 11:03:17;;;;;;;39.43;24.27;;;;;;;;;;5023395;28;20292;-68
2021/10/22 11:08:15;;;;;;;34.73;21.73;;;;;;;;;;5028920;28;20356;-68
2021/10/22 11:11:06;;;;;;;36.73;20.47;;;;;;;;;;5025914;28;20204;-68
2021/10/22 11:13:41;;;;;;;37.30;21.93;;;;;;;;;;5010994;28;20196;-68
2021/10/22 11:16:25;;;;;;;37.40;21.73;;;;;;;;;;5018369;28;20281;-69
2021/10/22 11:18:51;;;;;;;35.87;21.10;;;;;;;;;;5011157;28;20204;-69
2021/10/22 11:21:18;;;;;;;37.37;20.60;;;;;;;;;;5023861;28;20227;-68
2021/10/22 11:23:46;;;;;;;34.20;20.53;;;;;;;;;;5016729;28;20228;-68
2021/10/22 11:26:13;;;;;;;31.13;19.47;;;;;;;;;;5019028;28;20260;-67
2021/10/22 11:28:43;;;;;;;33.93;19.33;;;;;;;;;;5028082;28;20217;-70
2021/10/22 11:31:09;;;;;;;29.77;19.80;;;;;;;;;;5020315;28;20670;-69
2021/10/22 11:33:41;;;;;;;28.30;18.40;;;;;;;;;;5012826;28;20315;-68
2021/10/22 11:36:08;;;;;;;31.97;19.67;;;;;;;;;;5030004;28;20573;-68
2021/10/22 11:38:34;;;;;;;28.63;20.40;;;;;;;;;;5029596;28;20643;-68
2021/10/22 11:41:11;;;;;;;35.20;20.97;;;;;;;;;;5017452;28;20296;-69
2021/10/22 11:43:38;;;;;;;44.03;21.93;;;;;;;;;;5016024;28;20296;-69
2021/10/22 11:46:18;;;;;;;29.73;19.90;;;;;;;;;;5029950;28;20190;-69
2021/10/22 11:48:51;;;;;;;30.77;21.73;;;;;;;;;;5010423;28;20229;-69
2021/10/22 11:51:28;;;;;;;34.47;20.60;;;;;;;;;;5023634;28;20541;-69
2021/10/22 11:53:55;;;;;;;38.40;20.87;;;;;;;;;;5030670;28;20207;-68
2021/10/22 11:56:24;;;;;;;29.53;20.07;;;;;;;;;;5030054;28;20996;-68
2021/10/22 11:58:51;;;;;;;32.10;20.50;;;;;;;;;;5030010;28;20223;-67
2021/10/22 12:01:21;;;;;;;30.17;19.97;;;;;;;;;;5018501;28;20702;-69
2021/10/22 12:03:54;;;;;;;35.80;22.57;;;;;;;;;;5022942;28;20204;-69
2021/10/22 12:06:21;;;;;;;31.57;19.77;;;;;;;;;;5008246;28;20655;-68
2021/10/22 12:08:48;;;;;;;29.10;19.07;;;;;;;;;;5026380;28;20247;-68
2021/10/22 12:11:15;;;;;;;30.93;20.23;;;;;;;;;;5020869;28;20248;-69
2021/10/22 12:13:45;;;;;;;34.60;19.47;;;;;;;;;;5011044;28;20220;-68
2021/10/22 12:16:12;;;;;;;25.33;16.93;;;;;;;;;;5017027;28;20221;-69
2021/10/22 12:19:06;;;;;;;37.00;18.90;;;;;;;;;;5028450;28;20263;-67
2021/10/22 12:21:35;;;;;;;22.57;14.63;;;;;;;;;;5028947;28;20217;-67
2021/10/22 12:24:03;;;;;;;23.87;14.50;;;;;;;;;;5022601;28;20190;-67
2021/10/22 12:26:31;;;;;;;26.77;12.87;;;;;;;;;;5022734;28;20216;-67
2021/10/22 12:29:00;;;;;;;31.07;15.47;;;;;;;;;;5029253;28;20339;-68
2021/10/22 12:31:30;;;;;;;28.80;15.73;;;;;;;;;;5029462;28;20197;-68
2021/10/22 12:34:07;;;;;;;24.30;14.43;;;;;;;;;;5029467;28;20193;-68
2021/10/22 12:36:34;;;;;;;24.67;15.53;;;;;;;;;;5028675;28;20208;-68
2021/10/22 12:39:18;;;;;;;17.60;11.87;;;;;;;;;;5015214;28;20219;-68
2021/10/22 12:41:45;;;;;;;17.20;11.77;;;;;;;;;;5028914;28;20193;-67
2021/10/22 12:44:12;;;;;;;14.83;11.33;;;;;;;;;;5029489;28;20185;-67
2021/10/22 12:46:54;;;;;;;20.93;11.87;;;;;;;;;;5026203;28;20231;-68
2021/10/22 12:49:22;;;;;;;16.00;10.07;;;;;;;;;;5009348;28;20239;-66
2021/10/22 12:51:54;;;;;;;16.30;10.73;;;;;;;;;;5011326;28;20197;-67
2021/10/22 12:54:21;;;;;;;16.23;9.63;;;;;;;;;;5020863;28;20217;-66
2021/10/22 12:56:56;;;;;;;19.97;9.57;;;;;;;;;;5026786;28;20215;-67
2021/10/22 12:59:24;;;;;;;12.30;9.23;;;;;;;;;;5018100;28;20207;-67
2021/10/22 13:01:53;;;;;;;15.27;8.00;;;;;;;;;;5028210;28;20199;-68
2021/10/22 13:04:22;;;;;;;18.67;8.90;;;;;;;;;;5023365;28;20271;-68
2021/10/22 13:22:57;;;;;;;11.27;6.90;;;;;;;;;;5032480;28;20201;-69
2021/10/22 13:25:24;;;;;;;12.20;6.37;;;;;;;;;;5032526;28;20216;-69
2021/10/22 13:27:51;;;;;;;12.17;6.43;;;;;;;;;;5032416;28;20217;-69
2021/10/22 13:30:28;;;;;;;12.10;6.77;;;;;;;;;;5032602;28;20292;-69
2021/10/22 13:32:56;;;;;;;47.53;35.43;;;;;;;;;;5032413;28;20206;-68
2021/10/22 13:35:23;;;;;;;16.97;13.90;;;;;;;;;;5016285;28;20675;-68
2021/10/22 13:37:50;;;;;;;8.13;6.57;;;;;;;;;;5020985;28;20319;-68
2021/10/22 13:40:17;;;;;;;66.33;56.90;;;;;;;;;;5032583;28;20197;-74
2021/10/22 13:42:44;;;;;;;18.07;14.67;;;;;;;;;;5022007;28;20284;-73
2021/10/22 13:45:10;;;;;;;15.77;7.97;;;;;;;;;;5021320;28;20198;-69
2021/10/22 13:47:38;;;;;;;11.40;6.67;;;;;;;;;;5021745;28;20600;-72
2021/10/22 13:50:07;;;;;;;11.07;6.77;;;;;;;;;;5029174;28;20212;-67
2021/10/22 13:52:34;;;;;;;10.30;6.30;;;;;;;;;;5031693;28;20671;-75
2021/10/22 13:55:01;;;;;;;12.37;6.70;;;;;;;;;;5031205;28;20207;-73
2021/10/22 13:57:27;;;;;;;38.57;27.10;;;;;;;;;;5018663;28;20202;-71
2021/10/22 13:59:54;;;;;;;165.03;139.40;;;;;;;;;;5024578;28;20200;-76
2021/10/22 14:02:21;;;;;;;23.20;10.50;;;;;;;;;;5026092;28;20209;-72
2021/10/22 14:04:48;;;;;;;12.07;7.27;;;;;;;;;;5020614;28;20204;-73
2021/10/22 14:07:15;;;;;;;15.77;7.97;;;;;;;;;;5019572;28;20234;-72
2021/10/22 14:09:42;;;;;;;10.93;7.40;;;;;;;;;;5024793;28;20228;-75
2021/10/22 14:12:21;;;;;;;16.10;7.23;;;;;;;;;;5023752;28;20197;-71
2021/10/22 14:14:55;;;;;;;18.30;7.30;;;;;;;;;;5024632;28;20215;-76
2021/10/22 14:20:08;;;;;;;11.93;7.37;;;;;;;;;;5016034;28;20224;-70
2021/10/22 14:31:08;;;;;;;24.33;8.57;;;;;;;;;;5030182;28;20303;-73
2021/10/22 14:33:36;;;;;;;26.50;9.93;;;;;;;;;;5031019;28;20201;-73
2021/10/22 14:36:03;;;;;;;20.17;8.87;;;;;;;;;;5031189;28;20682;-73
2021/10/22 14:38:30;;;;;;;20.97;10.03;;;;;;;;;;5030624;28;20198;-73
2021/10/22 14:40:57;;;;;;;20.83;10.23;;;;;;;;;;5028077;28;20240;-70
2021/10/22 14:43:30;;;;;;;20.30;10.37;;;;;;;;;;5028665;28;20204;-74
2021/10/22 14:46:15;;;;;;;13.57;9.47;;;;;;;;;;5029456;28;20197;-83
2021/10/22 14:48:45;;;;;;;17.83;9.50;;;;;;;;;;5011759;28;20602;-77
2021/10/22 14:51:20;;;;;;;21.10;8.70;;;;;;;;;;5022609;28;20197;-71
2021/10/22 14:53:56;;;;;;;18.17;9.47;;;;;;;;;;5022764;28;20594;-75
2021/10/22 14:56:24;;;;;;;16.63;8.83;;;;;;;;;;5023921;28;20212;-70
2021/10/22 14:58:56;;;;;;;16.13;9.23;;;;;;;;;;5029343;28;20284;-73
2021/10/22 15:01:24;;;;;;;17.40;9.00;;;;;;;;;;5029564;28;20195;-71
2021/10/22 15:03:51;;;;;;;15.30;8.67;;;;;;;;;;5026338;28;20208;-70
2021/10/22 15:06:20;;;;;;;14.73;7.90;;;;;;;;;;5020249;28;20197;-73